sensor_id;sensor_type;location;lat;lon;timestamp;P1;durP1;ratioP1;P2;durP2;ratioP2
71671;SDS011;67659;45.554;11.812;2023-02-18T00:01:22;155.80;;;63.67;;
71671;SDS011;67659;45.554;11.812;2023-02-18T00:03:49;152.52;;;62.65;;
71671;SDS011;67659;45.554;11.812;2023-02-18T00:06:18;160.82;;;64.82;;
71671;SDS011;67659;45.554;11.812;2023-02-18T00:08:47;160.02;;;65.75;;
71671;SDS011;67659;45.554;11.812;2023-02-18T00:11:15;145.65;;;61.55;;
71671;SDS011;67659;45.554;11.812;2023-02-18T00:13:48;151.70;;;63.43;;
71671;SDS011;67659;45.554;11.812;2023-02-18T00:16:19;146.13;;;59.75;;
71671;SDS011;67659;45.554;11.812;2023-02-18T00:19:06;147.10;;;59.85;;
71671;SDS011;67659;45.554;11.812;2023-02-18T00:21:45;154.00;;;60.97;;
71671;SDS011;67659;45.554;11.812;2023-02-18T00:24:16;163.00;;;64.28;;
71671;SDS011;67659;45.554;11.812;2023-02-18T00:26:52;167.70;;;64.90;;
71671;SDS011;67659;45.554;11.812;2023-02-18T00:29:24;167.65;;;67.38;;
71671;SDS011;67659;45.554;11.812;2023-02-18T00:31:58;154.98;;;62.42;;
71671;SDS011;67659;45.554;11.812;2023-02-18T00:34:25;150.27;;;60.50;;
71671;SDS011;67659;45.554;11.812;2023-02-18T00:36:51;146.95;;;59.22;;
71671;SDS011;67659;45.554;11.812;2023-02-18T00:39:17;154.77;;;62.67;;
71671;SDS011;67659;45.554;11.812;2023-02-18T00:41:43;155.60;;;61.65;;
71671;SDS011;67659;45.554;11.812;2023-02-18T00:44:09;146.15;;;58.40;;
71671;SDS011;67659;45.554;11.812;2023-02-18T00:46:36;149.15;;;61.85;;
71671;SDS011;67659;45.554;11.812;2023-02-18T00:49:03;153.87;;;59.63;;
71671;SDS011;67659;45.554;11.812;2023-02-18T00:51:29;158.05;;;60.08;;
71671;SDS011;67659;45.554;11.812;2023-02-18T00:53:55;146.88;;;56.95;;
71671;SDS011;67659;45.554;11.812;2023-02-18T00:56:21;135.43;;;54.20;;
71671;SDS011;67659;45.554;11.812;2023-02-18T00:58:47;150.43;;;57.50;;
71671;SDS011;67659;45.554;11.812;2023-02-18T01:01:14;165.20;;;62.73;;
71671;SDS011;67659;45.554;11.812;2023-02-18T01:03:40;153.15;;;58.63;;
71671;SDS011;67659;45.554;11.812;2023-02-18T01:06:07;147.25;;;58.45;;
71671;SDS011;67659;45.554;11.812;2023-02-18T01:08:34;142.40;;;55.60;;
71671;SDS011;67659;45.554;11.812;2023-02-18T01:11:00;133.27;;;51.85;;
71671;SDS011;67659;45.554;11.812;2023-02-18T01:13:27;130.00;;;49.50;;
71671;SDS011;67659;45.554;11.812;2023-02-18T01:15:54;141.68;;;54.58;;
71671;SDS011;67659;45.554;11.812;2023-02-18T01:18:20;140.18;;;55.08;;
71671;SDS011;67659;45.554;11.812;2023-02-18T01:20:46;146.82;;;56.00;;
71671;SDS011;67659;45.554;11.812;2023-02-18T01:23:12;134.20;;;50.40;;
71671;SDS011;67659;45.554;11.812;2023-02-18T01:25:39;140.93;;;55.23;;
71671;SDS011;67659;45.554;11.812;2023-02-18T01:28:05;127.60;;;49.00;;
71671;SDS011;67659;45.554;11.812;2023-02-18T01:30:32;138.75;;;53.17;;
71671;SDS011;67659;45.554;11.812;2023-02-18T01:32:58;118.25;;;45.40;;
71671;SDS011;67659;45.554;11.812;2023-02-18T01:35:25;122.13;;;48.73;;
71671;SDS011;67659;45.554;11.812;2023-02-18T01:37:51;115.78;;;45.67;;
71671;SDS011;67659;45.554;11.812;2023-02-18T01:40:18;128.32;;;50.38;;
71671;SDS011;67659;45.554;11.812;2023-02-18T01:42:46;137.32;;;51.90;;
71671;SDS011;67659;45.554;11.812;2023-02-18T01:45:44;119.63;;;46.33;;
71671;SDS011;67659;45.554;11.812;2023-02-18T01:49:11;127.47;;;49.37;;
71671;SDS011;67659;45.554;11.812;2023-02-18T01:51:31;131.55;;;50.72;;
71671;SDS011;67659;45.554;11.812;2023-02-18T01:57:00;125.80;;;47.55;;
71671;SDS011;67659;45.554;11.812;2023-02-18T01:59:29;131.50;;;51.72;;
71671;SDS011;67659;45.554;11.812;2023-02-18T02:02:04;114.77;;;46.80;;
71671;SDS011;67659;45.554;11.812;2023-02-18T02:04:33;121.38;;;47.75;;
71671;SDS011;67659;45.554;11.812;2023-02-18T02:06:59;124.85;;;49.70;;
71671;SDS011;67659;45.554;11.812;2023-02-18T02:09:25;113.47;;;46.03;;
71671;SDS011;67659;45.554;11.812;2023-02-18T02:35:40;106.13;;;44.17;;
71671;SDS011;67659;45.554;11.812;2023-02-18T02:43:52;116.20;;;47.95;;
71671;SDS011;67659;45.554;11.812;2023-02-18T02:46:39;120.45;;;49.03;;
71671;SDS011;67659;45.554;11.812;2023-02-18T02:52:02;120.35;;;50.08;;
71671;SDS011;67659;45.554;11.812;2023-02-18T02:54:34;117.07;;;48.73;;
71671;SDS011;67659;45.554;11.812;2023-02-18T02:57:04;117.40;;;50.40;;
71671;SDS011;67659;45.554;11.812;2023-02-18T02:59:37;101.15;;;44.53;;
71671;SDS011;67659;45.554;11.812;2023-02-18T03:18:24;106.22;;;46.67;;
71671;SDS011;67659;45.554;11.812;2023-02-18T03:21:05;107.47;;;46.77;;
71671;SDS011;67659;45.554;11.812;2023-02-18T03:23:52;102.32;;;44.47;;
71671;SDS011;67659;45.554;11.812;2023-02-18T03:26:24;97.72;;;43.42;;
71671;SDS011;67659;45.554;11.812;2023-02-18T03:28:53;98.10;;;44.72;;
71671;SDS011;67659;45.554;11.812;2023-02-18T03:31:22;98.97;;;45.70;;
71671;SDS011;67659;45.554;11.812;2023-02-18T03:33:53;100.83;;;43.47;;
71671;SDS011;67659;45.554;11.812;2023-02-18T03:36:25;82.18;;;36.85;;
71671;SDS011;67659;45.554;11.812;2023-02-18T03:39:04;85.10;;;40.00;;
71671;SDS011;67659;45.554;11.812;2023-02-18T03:41:34;89.53;;;40.72;;
71671;SDS011;67659;45.554;11.812;2023-02-18T03:44:01;101.30;;;45.63;;
71671;SDS011;67659;45.554;11.812;2023-02-18T03:46:29;95.03;;;42.90;;
71671;SDS011;67659;45.554;11.812;2023-02-18T03:48:56;98.75;;;45.58;;
71671;SDS011;67659;45.554;11.812;2023-02-18T03:51:21;110.32;;;50.13;;
71671;SDS011;67659;45.554;11.812;2023-02-18T03:53:48;109.18;;;48.38;;
71671;SDS011;67659;45.554;11.812;2023-02-18T03:56:13;102.57;;;47.00;;
71671;SDS011;67659;45.554;11.812;2023-02-18T03:58:39;99.60;;;45.15;;
71671;SDS011;67659;45.554;11.812;2023-02-18T04:01:05;97.50;;;46.50;;
71671;SDS011;67659;45.554;11.812;2023-02-18T04:03:31;105.47;;;48.72;;
71671;SDS011;67659;45.554;11.812;2023-02-18T04:05:57;98.85;;;45.70;;
71671;SDS011;67659;45.554;11.812;2023-02-18T04:08:23;93.03;;;42.83;;
71671;SDS011;67659;45.554;11.812;2023-02-18T04:10:49;90.80;;;43.63;;
71671;SDS011;67659;45.554;11.812;2023-02-18T04:13:15;101.55;;;45.97;;
71671;SDS011;67659;45.554;11.812;2023-02-18T04:15:44;107.03;;;48.08;;
71671;SDS011;67659;45.554;11.812;2023-02-18T04:18:10;101.95;;;47.03;;
71671;SDS011;67659;45.554;11.812;2023-02-18T04:20:36;106.27;;;48.27;;
71671;SDS011;67659;45.554;11.812;2023-02-18T04:23:09;96.38;;;44.28;;
71671;SDS011;67659;45.554;11.812;2023-02-18T04:25:35;94.93;;;42.53;;
71671;SDS011;67659;45.554;11.812;2023-02-18T04:28:01;101.25;;;46.45;;
71671;SDS011;67659;45.554;11.812;2023-02-18T04:30:28;94.70;;;44.83;;
71671;SDS011;67659;45.554;11.812;2023-02-18T04:32:54;104.47;;;47.60;;
71671;SDS011;67659;45.554;11.812;2023-02-18T04:35:19;96.73;;;46.10;;
71671;SDS011;67659;45.554;11.812;2023-02-18T04:37:45;101.60;;;45.67;;
71671;SDS011;67659;45.554;11.812;2023-02-18T04:40:11;88.72;;;42.17;;
71671;SDS011;67659;45.554;11.812;2023-02-18T04:42:38;103.00;;;45.60;;
71671;SDS011;67659;45.554;11.812;2023-02-18T04:45:04;102.23;;;46.40;;
71671;SDS011;67659;45.554;11.812;2023-02-18T04:47:30;102.07;;;47.13;;
71671;SDS011;67659;45.554;11.812;2023-02-18T04:49:56;98.03;;;44.65;;
71671;SDS011;67659;45.554;11.812;2023-02-18T04:52:21;97.80;;;43.28;;
71671;SDS011;67659;45.554;11.812;2023-02-18T04:54:47;94.47;;;44.13;;
71671;SDS011;67659;45.554;11.812;2023-02-18T04:57:13;88.53;;;40.08;;
71671;SDS011;67659;45.554;11.812;2023-02-18T04:59:39;89.57;;;42.07;;
71671;SDS011;67659;45.554;11.812;2023-02-18T05:02:05;92.18;;;44.33;;
71671;SDS011;67659;45.554;11.812;2023-02-18T05:04:31;103.25;;;48.55;;
71671;SDS011;67659;45.554;11.812;2023-02-18T05:06:56;100.30;;;46.87;;
71671;SDS011;67659;45.554;11.812;2023-02-18T05:09:22;98.75;;;46.47;;
71671;SDS011;67659;45.554;11.812;2023-02-18T05:11:48;98.57;;;47.10;;
71671;SDS011;67659;45.554;11.812;2023-02-18T05:14:14;95.60;;;44.57;;
71671;SDS011;67659;45.554;11.812;2023-02-18T05:16:40;98.93;;;44.65;;
71671;SDS011;67659;45.554;11.812;2023-02-18T05:19:07;92.63;;;43.35;;
71671;SDS011;67659;45.554;11.812;2023-02-18T05:21:34;85.20;;;40.58;;
71671;SDS011;67659;45.554;11.812;2023-02-18T05:23:59;92.43;;;42.47;;
71671;SDS011;67659;45.554;11.812;2023-02-18T05:26:25;86.55;;;40.40;;
71671;SDS011;67659;45.554;11.812;2023-02-18T05:28:51;93.93;;;39.70;;
71671;SDS011;67659;45.554;11.812;2023-02-18T05:31:17;87.70;;;39.13;;
71671;SDS011;67659;45.554;11.812;2023-02-18T05:33:42;96.47;;;45.10;;
71671;SDS011;67659;45.554;11.812;2023-02-18T05:36:08;91.93;;;42.53;;
71671;SDS011;67659;45.554;11.812;2023-02-18T19:41:39;131.35;;;60.53;;
71671;SDS011;67659;45.554;11.812;2023-02-18T19:44:05;133.63;;;65.15;;
71671;SDS011;67659;45.554;11.812;2023-02-18T19:46:31;154.57;;;68.97;;
71671;SDS011;67659;45.554;11.812;2023-02-18T19:48:56;156.85;;;71.82;;
71671;SDS011;67659;45.554;11.812;2023-02-18T19:51:23;139.80;;;66.90;;
71671;SDS011;67659;45.554;11.812;2023-02-18T19:53:50;151.25;;;69.97;;
71671;SDS011;67659;45.554;11.812;2023-02-18T19:56:16;162.27;;;74.75;;
71671;SDS011;67659;45.554;11.812;2023-02-18T19:58:41;139.80;;;67.05;;
71671;SDS011;67659;45.554;11.812;2023-02-18T20:01:14;145.70;;;69.87;;
71671;SDS011;67659;45.554;11.812;2023-02-18T20:03:41;163.77;;;74.50;;
71671;SDS011;67659;45.554;11.812;2023-02-18T20:06:17;171.98;;;79.60;;
71671;SDS011;67659;45.554;11.812;2023-02-18T20:08:46;161.93;;;75.25;;
71671;SDS011;67659;45.554;11.812;2023-02-18T20:11:12;183.73;;;86.03;;
71671;SDS011;67659;45.554;11.812;2023-02-18T20:13:38;167.95;;;78.00;;
71671;SDS011;67659;45.554;11.812;2023-02-18T20:16:08;175.57;;;79.75;;
71671;SDS011;67659;45.554;11.812;2023-02-18T20:18:36;166.32;;;77.57;;
71671;SDS011;67659;45.554;11.812;2023-02-18T20:21:03;209.57;;;94.78;;
71671;SDS011;67659;45.554;11.812;2023-02-18T20:23:29;170.90;;;78.97;;
71671;SDS011;67659;45.554;11.812;2023-02-18T20:25:58;204.65;;;90.90;;
71671;SDS011;67659;45.554;11.812;2023-02-18T20:28:28;204.52;;;90.80;;
71671;SDS011;67659;45.554;11.812;2023-02-18T20:31:04;189.15;;;87.28;;
71671;SDS011;67659;45.554;11.812;2023-02-18T20:33:32;194.38;;;86.07;;
71671;SDS011;67659;45.554;11.812;2023-02-18T20:35:58;160.00;;;74.03;;
71671;SDS011;67659;45.554;11.812;2023-02-18T20:38:24;156.27;;;72.80;;
71671;SDS011;67659;45.554;11.812;2023-02-18T20:40:52;137.73;;;63.42;;
71671;SDS011;67659;45.554;11.812;2023-02-18T20:43:19;156.67;;;71.70;;
71671;SDS011;67659;45.554;11.812;2023-02-18T20:45:47;169.75;;;79.00;;
71671;SDS011;67659;45.554;11.812;2023-02-18T20:48:13;142.75;;;63.13;;
71671;SDS011;67659;45.554;11.812;2023-02-18T20:50:39;151.10;;;70.82;;
71671;SDS011;67659;45.554;11.812;2023-02-18T20:53:05;173.20;;;79.30;;
71671;SDS011;67659;45.554;11.812;2023-02-18T20:55:32;172.55;;;80.90;;
71671;SDS011;67659;45.554;11.812;2023-02-18T20:57:58;182.57;;;83.93;;
71671;SDS011;67659;45.554;11.812;2023-02-18T21:00:23;190.50;;;90.77;;
71671;SDS011;67659;45.554;11.812;2023-02-18T21:02:50;183.13;;;84.88;;
71671;SDS011;67659;45.554;11.812;2023-02-18T21:05:16;159.68;;;72.47;;
71671;SDS011;67659;45.554;11.812;2023-02-18T21:07:43;183.70;;;85.60;;
71671;SDS011;67659;45.554;11.812;2023-02-18T21:10:09;179.50;;;82.60;;
71671;SDS011;67659;45.554;11.812;2023-02-18T21:12:35;205.40;;;95.20;;
71671;SDS011;67659;45.554;11.812;2023-02-18T21:15:00;199.67;;;92.07;;
71671;SDS011;67659;45.554;11.812;2023-02-18T21:17:26;176.80;;;81.28;;
71671;SDS011;67659;45.554;11.812;2023-02-18T21:19:52;179.05;;;81.35;;
71671;SDS011;67659;45.554;11.812;2023-02-18T21:22:18;177.97;;;81.50;;
71671;SDS011;67659;45.554;11.812;2023-02-18T21:24:44;181.27;;;80.07;;
71671;SDS011;67659;45.554;11.812;2023-02-18T21:27:09;178.93;;;78.77;;
71671;SDS011;67659;45.554;11.812;2023-02-18T21:29:35;145.27;;;67.22;;
71671;SDS011;67659;45.554;11.812;2023-02-18T21:32:01;166.38;;;72.45;;
71671;SDS011;67659;45.554;11.812;2023-02-18T21:34:27;150.93;;;65.07;;
71671;SDS011;67659;45.554;11.812;2023-02-18T21:36:52;141.52;;;59.88;;
71671;SDS011;67659;45.554;11.812;2023-02-18T21:39:18;153.97;;;65.63;;
71671;SDS011;67659;45.554;11.812;2023-02-18T21:41:44;148.55;;;65.32;;
71671;SDS011;67659;45.554;11.812;2023-02-18T21:44:10;138.98;;;59.60;;
71671;SDS011;67659;45.554;11.812;2023-02-18T21:46:36;132.70;;;57.43;;
71671;SDS011;67659;45.554;11.812;2023-02-18T21:49:03;133.15;;;57.78;;
71671;SDS011;67659;45.554;11.812;2023-02-18T21:51:40;144.18;;;59.83;;
71671;SDS011;67659;45.554;11.812;2023-02-18T21:54:39;134.60;;;60.58;;
71671;SDS011;67659;45.554;11.812;2023-02-18T21:57:09;151.47;;;65.17;;
71671;SDS011;67659;45.554;11.812;2023-02-18T21:59:38;146.93;;;62.47;;
71671;SDS011;67659;45.554;11.812;2023-02-18T22:02:05;145.80;;;61.63;;
71671;SDS011;67659;45.554;11.812;2023-02-18T22:04:34;153.90;;;67.05;;
71671;SDS011;67659;45.554;11.812;2023-02-18T22:07:00;153.15;;;65.38;;
71671;SDS011;67659;45.554;11.812;2023-02-18T22:09:27;162.47;;;67.87;;
71671;SDS011;67659;45.554;11.812;2023-02-18T22:11:53;152.07;;;64.25;;
71671;SDS011;67659;45.554;11.812;2023-02-18T22:14:19;145.95;;;61.20;;
71671;SDS011;67659;45.554;11.812;2023-02-18T22:16:45;152.00;;;61.72;;
71671;SDS011;67659;45.554;11.812;2023-02-18T22:19:11;138.67;;;58.83;;
71671;SDS011;67659;45.554;11.812;2023-02-18T22:21:38;144.20;;;60.53;;
71671;SDS011;67659;45.554;11.812;2023-02-18T22:24:05;130.93;;;53.92;;
71671;SDS011;67659;45.554;11.812;2023-02-18T22:26:32;149.23;;;61.15;;
71671;SDS011;67659;45.554;11.812;2023-02-18T22:28:59;145.18;;;61.25;;
71671;SDS011;67659;45.554;11.812;2023-02-18T22:31:26;141.73;;;58.40;;
71671;SDS011;67659;45.554;11.812;2023-02-18T22:33:53;129.52;;;55.88;;
71671;SDS011;67659;45.554;11.812;2023-02-18T22:36:21;138.13;;;58.70;;
71671;SDS011;67659;45.554;11.812;2023-02-18T22:38:48;153.80;;;61.08;;
71671;SDS011;67659;45.554;11.812;2023-02-18T22:41:15;159.15;;;65.03;;
71671;SDS011;67659;45.554;11.812;2023-02-18T22:43:43;142.13;;;60.03;;
71671;SDS011;67659;45.554;11.812;2023-02-18T22:46:10;163.77;;;66.03;;
71671;SDS011;67659;45.554;11.812;2023-02-18T22:48:38;163.60;;;64.35;;
71671;SDS011;67659;45.554;11.812;2023-02-18T22:51:11;167.70;;;63.78;;
71671;SDS011;67659;45.554;11.812;2023-02-18T22:53:39;156.27;;;60.80;;
71671;SDS011;67659;45.554;11.812;2023-02-18T22:56:07;163.02;;;63.80;;
71671;SDS011;67659;45.554;11.812;2023-02-18T22:58:38;171.68;;;67.00;;
71671;SDS011;67659;45.554;11.812;2023-02-18T23:01:05;171.63;;;67.32;;
71671;SDS011;67659;45.554;11.812;2023-02-18T23:03:32;157.98;;;62.85;;
71671;SDS011;67659;45.554;11.812;2023-02-18T23:06:02;151.80;;;58.70;;
71671;SDS011;67659;45.554;11.812;2023-02-18T23:08:30;154.35;;;61.53;;
71671;SDS011;67659;45.554;11.812;2023-02-18T23:11:00;165.88;;;64.93;;
71671;SDS011;67659;45.554;11.812;2023-02-18T23:13:28;163.00;;;62.70;;
71671;SDS011;67659;45.554;11.812;2023-02-18T23:15:55;139.80;;;56.92;;
71671;SDS011;67659;45.554;11.812;2023-02-18T23:18:28;138.90;;;55.10;;
71671;SDS011;67659;45.554;11.812;2023-02-18T23:21:01;144.45;;;55.03;;
71671;SDS011;67659;45.554;11.812;2023-02-18T23:23:49;146.02;;;58.40;;
71671;SDS011;67659;45.554;11.812;2023-02-18T23:26:15;132.63;;;53.45;;
71671;SDS011;67659;45.554;11.812;2023-02-18T23:28:42;141.07;;;53.63;;
71671;SDS011;67659;45.554;11.812;2023-02-18T23:33:39;137.18;;;52.25;;
71671;SDS011;67659;45.554;11.812;2023-02-18T23:36:09;130.13;;;50.88;;
71671;SDS011;67659;45.554;11.812;2023-02-18T23:38:36;155.70;;;59.13;;
71671;SDS011;67659;45.554;11.812;2023-02-18T23:41:02;149.87;;;58.67;;
71671;SDS011;67659;45.554;11.812;2023-02-18T23:43:31;147.32;;;54.70;;
71671;SDS011;67659;45.554;11.812;2023-02-18T23:45:57;139.77;;;52.23;;
71671;SDS011;67659;45.554;11.812;2023-02-18T23:48:23;138.82;;;54.60;;
71671;SDS011;67659;45.554;11.812;2023-02-18T23:50:49;153.40;;;58.25;;
71671;SDS011;67659;45.554;11.812;2023-02-18T23:53:23;153.45;;;57.13;;
71671;SDS011;67659;45.554;11.812;2023-02-18T23:55:58;131.57;;;49.27;;
71671;SDS011;67659;45.554;11.812;2023-02-18T23:58:30;147.43;;;57.33;;
